sensor_id;sensor_type;location;lat;lon;timestamp;P1;durP1;ratioP1;P2;durP2;ratioP2
5237;SDS011;2639;49.700;7.962;2022-09-09T09:49:52;3.23;;;1.43;;
5237;SDS011;2639;49.700;7.962;2022-09-09T09:53:17;3.87;;;1.47;;
5237;SDS011;2639;49.700;7.962;2022-09-09T09:56:31;4.27;;;1.90;;
5237;SDS011;2639;49.700;7.962;2022-09-09T09:59:44;3.57;;;1.57;;
5237;SDS011;2639;49.700;7.962;2022-09-09T10:03:12;5.40;;;1.50;;
5237;SDS011;2639;49.700;7.962;2022-09-09T10:06:31;4.47;;;1.60;;
5237;SDS011;2639;49.700;7.962;2022-09-09T10:09:50;4.20;;;1.37;;
5237;SDS011;2639;49.700;7.962;2022-09-09T10:13:06;4.43;;;1.70;;
5237;SDS011;2639;49.700;7.962;2022-09-09T10:16:37;4.67;;;1.47;;
5237;SDS011;2639;49.700;7.962;2022-09-09T10:20:01;4.13;;;1.83;;
5237;SDS011;2639;49.700;7.962;2022-09-09T10:23:35;2.97;;;1.10;;
5237;SDS011;2639;49.700;7.962;2022-09-09T10:26:55;4.23;;;1.30;;
5237;SDS011;2639;49.700;7.962;2022-09-09T10:30:12;6.13;;;2.00;;
5237;SDS011;2639;49.700;7.962;2022-09-09T10:33:27;3.93;;;1.40;;
5237;SDS011;2639;49.700;7.962;2022-09-09T10:36:44;5.67;;;1.60;;
5237;SDS011;2639;49.700;7.962;2022-09-09T10:40:01;5.67;;;1.50;;
5237;SDS011;2639;49.700;7.962;2022-09-09T10:43:31;4.43;;;1.40;;
5237;SDS011;2639;49.700;7.962;2022-09-09T10:46:55;3.97;;;1.30;;
5237;SDS011;2639;49.700;7.962;2022-09-09T10:50:18;5.47;;;1.63;;
5237;SDS011;2639;49.700;7.962;2022-09-09T10:54:06;4.80;;;1.40;;
5237;SDS011;2639;49.700;7.962;2022-09-09T10:57:31;4.93;;;1.30;;
5237;SDS011;2639;49.700;7.962;2022-09-09T11:00:50;3.60;;;1.37;;
5237;SDS011;2639;49.700;7.962;2022-09-09T11:04:06;6.13;;;1.70;;
5237;SDS011;2639;49.700;7.962;2022-09-09T11:07:28;4.87;;;1.10;;
5237;SDS011;2639;49.700;7.962;2022-09-09T11:10:46;4.30;;;1.43;;
5237;SDS011;2639;49.700;7.962;2022-09-09T11:14:05;4.37;;;1.27;;
5237;SDS011;2639;49.700;7.962;2022-09-09T11:17:26;4.40;;;1.40;;
5237;SDS011;2639;49.700;7.962;2022-09-09T11:20:39;3.17;;;1.23;;
5237;SDS011;2639;49.700;7.962;2022-09-09T11:23:53;3.60;;;1.10;;
5237;SDS011;2639;49.700;7.962;2022-09-09T11:27:09;2.47;;;1.00;;
5237;SDS011;2639;49.700;7.962;2022-09-09T11:30:25;3.83;;;1.23;;
5237;SDS011;2639;49.700;7.962;2022-09-09T11:34:09;2.23;;;0.90;;
5237;SDS011;2639;49.700;7.962;2022-09-09T11:37:42;3.27;;;1.00;;
5237;SDS011;2639;49.700;7.962;2022-09-09T11:41:10;3.27;;;1.07;;
5237;SDS011;2639;49.700;7.962;2022-09-09T11:44:23;4.07;;;1.30;;
5237;SDS011;2639;49.700;7.962;2022-09-09T11:47:38;2.70;;;0.90;;
5237;SDS011;2639;49.700;7.962;2022-09-09T11:50:57;7.97;;;1.40;;
5237;SDS011;2639;49.700;7.962;2022-09-09T11:54:25;4.13;;;1.47;;
5237;SDS011;2639;49.700;7.962;2022-09-09T11:57:40;3.97;;;1.20;;
5237;SDS011;2639;49.700;7.962;2022-09-09T12:00:58;5.33;;;1.10;;
5237;SDS011;2639;49.700;7.962;2022-09-09T12:04:14;1.80;;;0.80;;
5237;SDS011;2639;49.700;7.962;2022-09-09T12:07:31;2.33;;;0.80;;
5237;SDS011;2639;49.700;7.962;2022-09-09T12:10:53;1.97;;;0.80;;
5237;SDS011;2639;49.700;7.962;2022-09-09T12:14:18;1.37;;;0.67;;
5237;SDS011;2639;49.700;7.962;2022-09-09T12:17:31;1.97;;;0.60;;
5237;SDS011;2639;49.700;7.962;2022-09-09T12:20:50;3.60;;;0.70;;
5237;SDS011;2639;49.700;7.962;2022-09-09T12:24:07;1.10;;;0.50;;
5237;SDS011;2639;49.700;7.962;2022-09-09T12:27:20;0.93;;;0.43;;
5237;SDS011;2639;49.700;7.962;2022-09-09T12:30:39;1.63;;;0.67;;
5237;SDS011;2639;49.700;7.962;2022-09-09T12:34:02;3.10;;;0.60;;
5237;SDS011;2639;49.700;7.962;2022-09-09T12:37:21;1.80;;;0.50;;
5237;SDS011;2639;49.700;7.962;2022-09-09T12:40:38;1.63;;;0.50;;
5237;SDS011;2639;49.700;7.962;2022-09-09T12:43:48;1.83;;;0.70;;
5237;SDS011;2639;49.700;7.962;2022-09-09T12:47:00;1.73;;;0.70;;
5237;SDS011;2639;49.700;7.962;2022-09-09T12:50:21;2.97;;;0.80;;
5237;SDS011;2639;49.700;7.962;2022-09-09T12:53:34;1.57;;;0.77;;
5237;SDS011;2639;49.700;7.962;2022-09-09T12:56:50;2.73;;;0.83;;
5237;SDS011;2639;49.700;7.962;2022-09-09T13:00:04;1.67;;;0.70;;
5237;SDS011;2639;49.700;7.962;2022-09-09T13:03:19;4.77;;;1.20;;
5237;SDS011;2639;49.700;7.962;2022-09-09T13:06:31;3.43;;;1.10;;
5237;SDS011;2639;49.700;7.962;2022-09-09T13:09:42;2.00;;;0.93;;
5237;SDS011;2639;49.700;7.962;2022-09-09T13:12:53;2.33;;;0.90;;
5237;SDS011;2639;49.700;7.962;2022-09-09T13:16:03;2.53;;;1.17;;
5237;SDS011;2639;49.700;7.962;2022-09-09T13:19:16;1.13;;;0.80;;
5237;SDS011;2639;49.700;7.962;2022-09-09T13:22:29;4.23;;;0.70;;
5237;SDS011;2639;49.700;7.962;2022-09-09T13:25:41;2.53;;;0.93;;
5237;SDS011;2639;49.700;7.962;2022-09-09T13:29:08;2.67;;;0.90;;
5237;SDS011;2639;49.700;7.962;2022-09-09T13:32:30;2.37;;;0.97;;
5237;SDS011;2639;49.700;7.962;2022-09-09T13:35:45;3.93;;;1.20;;
5237;SDS011;2639;49.700;7.962;2022-09-09T13:38:59;2.43;;;1.00;;
5237;SDS011;2639;49.700;7.962;2022-09-09T13:42:19;4.63;;;1.23;;
5237;SDS011;2639;49.700;7.962;2022-09-09T13:45:33;1.80;;;0.80;;
5237;SDS011;2639;49.700;7.962;2022-09-09T13:48:53;1.33;;;0.80;;
5237;SDS011;2639;49.700;7.962;2022-09-09T13:52:11;2.77;;;1.10;;
5237;SDS011;2639;49.700;7.962;2022-09-09T13:55:24;3.93;;;1.00;;
5237;SDS011;2639;49.700;7.962;2022-09-09T13:58:35;3.37;;;1.27;;
5237;SDS011;2639;49.700;7.962;2022-09-09T14:01:45;2.87;;;1.20;;
5237;SDS011;2639;49.700;7.962;2022-09-09T14:04:57;4.00;;;1.30;;
5237;SDS011;2639;49.700;7.962;2022-09-09T14:08:10;1.73;;;0.83;;
5237;SDS011;2639;49.700;7.962;2022-09-09T14:11:30;2.80;;;1.07;;
5237;SDS011;2639;49.700;7.962;2022-09-09T14:14:43;3.67;;;1.10;;
5237;SDS011;2639;49.700;7.962;2022-09-09T14:17:53;2.50;;;1.03;;
5237;SDS011;2639;49.700;7.962;2022-09-09T14:21:03;3.90;;;1.30;;
5237;SDS011;2639;49.700;7.962;2022-09-09T14:24:13;2.37;;;0.90;;
5237;SDS011;2639;49.700;7.962;2022-09-09T14:27:26;3.63;;;1.33;;
5237;SDS011;2639;49.700;7.962;2022-09-09T14:30:37;3.27;;;1.17;;
5237;SDS011;2639;49.700;7.962;2022-09-09T14:33:48;3.27;;;1.17;;
5237;SDS011;2639;49.700;7.962;2022-09-09T14:36:59;4.70;;;1.37;;
5237;SDS011;2639;49.700;7.962;2022-09-09T14:40:10;4.07;;;1.30;;
5237;SDS011;2639;49.700;7.962;2022-09-09T14:43:22;1.70;;;0.93;;
5237;SDS011;2639;49.700;7.962;2022-09-09T14:46:31;1.97;;;0.80;;
5237;SDS011;2639;49.700;7.962;2022-09-09T14:49:41;2.60;;;1.03;;
5237;SDS011;2639;49.700;7.962;2022-09-09T14:52:54;2.13;;;0.80;;
5237;SDS011;2639;49.700;7.962;2022-09-09T14:56:05;1.77;;;0.77;;
5237;SDS011;2639;49.700;7.962;2022-09-09T14:59:20;1.63;;;0.77;;
5237;SDS011;2639;49.700;7.962;2022-09-09T15:02:30;3.70;;;0.87;;
5237;SDS011;2639;49.700;7.962;2022-09-09T15:05:47;1.23;;;0.70;;
5237;SDS011;2639;49.700;7.962;2022-09-09T15:08:57;2.43;;;0.80;;
5237;SDS011;2639;49.700;7.962;2022-09-09T15:12:07;2.80;;;1.07;;
5237;SDS011;2639;49.700;7.962;2022-09-09T15:15:18;2.73;;;2.00;;
5237;SDS011;2639;49.700;7.962;2022-09-09T15:18:30;2.60;;;0.90;;
5237;SDS011;2639;49.700;7.962;2022-09-09T15:21:43;1.57;;;0.70;;
5237;SDS011;2639;49.700;7.962;2022-09-09T15:24:53;2.30;;;0.90;;
5237;SDS011;2639;49.700;7.962;2022-09-09T15:28:03;2.17;;;1.20;;
5237;SDS011;2639;49.700;7.962;2022-09-09T15:31:15;1.83;;;1.10;;
5237;SDS011;2639;49.700;7.962;2022-09-09T15:34:26;3.87;;;1.20;;
5237;SDS011;2639;49.700;7.962;2022-09-09T15:37:36;3.07;;;0.90;;
5237;SDS011;2639;49.700;7.962;2022-09-09T15:40:52;2.70;;;0.90;;
5237;SDS011;2639;49.700;7.962;2022-09-09T15:44:03;2.80;;;1.07;;
5237;SDS011;2639;49.700;7.962;2022-09-09T15:47:15;2.93;;;0.90;;
5237;SDS011;2639;49.700;7.962;2022-09-09T15:50:26;3.43;;;1.00;;
5237;SDS011;2639;49.700;7.962;2022-09-09T15:53:36;3.23;;;1.00;;
5237;SDS011;2639;49.700;7.962;2022-09-09T15:56:47;5.60;;;1.20;;
5237;SDS011;2639;49.700;7.962;2022-09-09T16:00:03;2.87;;;1.10;;
5237;SDS011;2639;49.700;7.962;2022-09-09T16:03:18;2.53;;;0.93;;
5237;SDS011;2639;49.700;7.962;2022-09-09T16:06:29;3.27;;;1.00;;
5237;SDS011;2639;49.700;7.962;2022-09-09T16:09:39;1.93;;;1.10;;
5237;SDS011;2639;49.700;7.962;2022-09-09T16:12:51;3.97;;;1.10;;
5237;SDS011;2639;49.700;7.962;2022-09-09T16:16:01;2.47;;;1.20;;
5237;SDS011;2639;49.700;7.962;2022-09-09T16:19:15;2.73;;;1.00;;
5237;SDS011;2639;49.700;7.962;2022-09-09T16:22:28;7.47;;;2.47;;
5237;SDS011;2639;49.700;7.962;2022-09-09T16:25:38;3.50;;;1.33;;
5237;SDS011;2639;49.700;7.962;2022-09-09T16:28:48;3.17;;;1.03;;
5237;SDS011;2639;49.700;7.962;2022-09-09T16:31:58;5.07;;;1.60;;
5237;SDS011;2639;49.700;7.962;2022-09-09T16:35:16;3.67;;;1.40;;
5237;SDS011;2639;49.700;7.962;2022-09-09T16:38:27;3.23;;;1.30;;
5237;SDS011;2639;49.700;7.962;2022-09-09T16:41:38;2.00;;;0.70;;
5237;SDS011;2639;49.700;7.962;2022-09-09T16:44:48;3.47;;;1.47;;
5237;SDS011;2639;49.700;7.962;2022-09-09T16:47:59;2.83;;;1.00;;
5237;SDS011;2639;49.700;7.962;2022-09-09T16:51:12;1.73;;;1.00;;
5237;SDS011;2639;49.700;7.962;2022-09-09T16:54:23;3.67;;;0.93;;
5237;SDS011;2639;49.700;7.962;2022-09-09T16:57:35;2.53;;;0.90;;
5237;SDS011;2639;49.700;7.962;2022-09-09T17:00:46;2.17;;;0.80;;
5237;SDS011;2639;49.700;7.962;2022-09-09T17:03:57;4.17;;;1.00;;
5237;SDS011;2639;49.700;7.962;2022-09-09T17:07:13;2.47;;;0.90;;
5237;SDS011;2639;49.700;7.962;2022-09-09T17:10:23;1.50;;;1.00;;
5237;SDS011;2639;49.700;7.962;2022-09-09T17:13:33;2.43;;;0.80;;
5237;SDS011;2639;49.700;7.962;2022-09-09T17:16:46;2.80;;;0.73;;
5237;SDS011;2639;49.700;7.962;2022-09-09T17:19:59;1.33;;;0.90;;
5237;SDS011;2639;49.700;7.962;2022-09-09T17:23:11;2.83;;;0.83;;
5237;SDS011;2639;49.700;7.962;2022-09-09T17:26:24;3.67;;;1.23;;
5237;SDS011;2639;49.700;7.962;2022-09-09T17:29:35;2.33;;;0.90;;
5237;SDS011;2639;49.700;7.962;2022-09-09T17:32:45;2.57;;;0.80;;
5237;SDS011;2639;49.700;7.962;2022-09-09T17:35:55;3.50;;;0.80;;
5237;SDS011;2639;49.700;7.962;2022-09-09T17:39:07;0.83;;;0.70;;
5237;SDS011;2639;49.700;7.962;2022-09-09T17:42:17;2.20;;;0.80;;
5237;SDS011;2639;49.700;7.962;2022-09-09T17:45:28;2.70;;;0.80;;
5237;SDS011;2639;49.700;7.962;2022-09-09T17:48:38;3.10;;;0.80;;
5237;SDS011;2639;49.700;7.962;2022-09-09T17:51:51;3.10;;;0.83;;
5237;SDS011;2639;49.700;7.962;2022-09-09T17:55:03;2.67;;;1.07;;
5237;SDS011;2639;49.700;7.962;2022-09-09T17:58:13;1.43;;;0.80;;
5237;SDS011;2639;49.700;7.962;2022-09-09T18:01:26;1.00;;;0.70;;
5237;SDS011;2639;49.700;7.962;2022-09-09T18:04:45;1.10;;;0.60;;
5237;SDS011;2639;49.700;7.962;2022-09-09T18:07:57;0.83;;;0.60;;
5237;SDS011;2639;49.700;7.962;2022-09-09T18:11:08;1.37;;;0.70;;
5237;SDS011;2639;49.700;7.962;2022-09-09T18:14:19;2.00;;;0.60;;
5237;SDS011;2639;49.700;7.962;2022-09-09T18:17:31;2.47;;;0.90;;
5237;SDS011;2639;49.700;7.962;2022-09-09T18:20:41;2.10;;;1.30;;
5237;SDS011;2639;49.700;7.962;2022-09-09T18:23:51;1.70;;;0.90;;
5237;SDS011;2639;49.700;7.962;2022-09-09T18:27:08;1.53;;;0.80;;
5237;SDS011;2639;49.700;7.962;2022-09-09T18:30:18;2.47;;;0.93;;
5237;SDS011;2639;49.700;7.962;2022-09-09T18:33:28;2.10;;;1.00;;
5237;SDS011;2639;49.700;7.962;2022-09-09T18:36:38;2.03;;;1.10;;
5237;SDS011;2639;49.700;7.962;2022-09-09T18:39:50;4.10;;;1.10;;
5237;SDS011;2639;49.700;7.962;2022-09-09T18:43:01;3.13;;;1.00;;
5237;SDS011;2639;49.700;7.962;2022-09-09T18:46:11;5.50;;;1.33;;
5237;SDS011;2639;49.700;7.962;2022-09-09T18:49:21;2.43;;;1.20;;
5237;SDS011;2639;49.700;7.962;2022-09-09T18:52:32;3.80;;;1.40;;
5237;SDS011;2639;49.700;7.962;2022-09-09T18:55:42;1.47;;;0.90;;
5237;SDS011;2639;49.700;7.962;2022-09-09T18:58:53;3.53;;;1.13;;
5237;SDS011;2639;49.700;7.962;2022-09-09T19:02:06;1.93;;;1.00;;
5237;SDS011;2639;49.700;7.962;2022-09-09T19:05:19;5.50;;;2.13;;
5237;SDS011;2639;49.700;7.962;2022-09-09T19:08:29;4.50;;;1.50;;
5237;SDS011;2639;49.700;7.962;2022-09-09T19:11:39;4.33;;;2.10;;
5237;SDS011;2639;49.700;7.962;2022-09-09T19:14:52;3.93;;;1.53;;
5237;SDS011;2639;49.700;7.962;2022-09-09T19:18:02;3.37;;;1.50;;
5237;SDS011;2639;49.700;7.962;2022-09-09T19:21:13;3.97;;;1.50;;
5237;SDS011;2639;49.700;7.962;2022-09-09T19:24:26;3.23;;;1.17;;
5237;SDS011;2639;49.700;7.962;2022-09-09T19:27:37;2.13;;;1.03;;
5237;SDS011;2639;49.700;7.962;2022-09-09T19:30:48;2.30;;;1.17;;
5237;SDS011;2639;49.700;7.962;2022-09-09T19:34:01;3.00;;;1.10;;
5237;SDS011;2639;49.700;7.962;2022-09-09T19:37:11;3.47;;;1.57;;
5237;SDS011;2639;49.700;7.962;2022-09-09T19:40:26;2.20;;;1.20;;
5237;SDS011;2639;49.700;7.962;2022-09-09T19:43:37;3.53;;;1.10;;
5237;SDS011;2639;49.700;7.962;2022-09-09T19:46:49;2.50;;;1.23;;
5237;SDS011;2639;49.700;7.962;2022-09-09T19:50:02;3.10;;;1.30;;
5237;SDS011;2639;49.700;7.962;2022-09-09T19:53:13;1.70;;;1.13;;
5237;SDS011;2639;49.700;7.962;2022-09-09T19:56:25;3.57;;;1.50;;
5237;SDS011;2639;49.700;7.962;2022-09-09T19:59:38;2.87;;;1.13;;
5237;SDS011;2639;49.700;7.962;2022-09-09T20:02:52;3.10;;;1.57;;
5237;SDS011;2639;49.700;7.962;2022-09-09T20:06:23;2.07;;;1.13;;
5237;SDS011;2639;49.700;7.962;2022-09-09T20:09:35;1.90;;;1.33;;
5237;SDS011;2639;49.700;7.962;2022-09-09T20:12:47;2.40;;;1.20;;
5237;SDS011;2639;49.700;7.962;2022-09-09T20:15:58;1.07;;;0.90;;
5237;SDS011;2639;49.700;7.962;2022-09-09T20:19:10;4.10;;;0.93;;
5237;SDS011;2639;49.700;7.962;2022-09-09T20:22:23;1.90;;;1.00;;
5237;SDS011;2639;49.700;7.962;2022-09-09T20:25:34;2.03;;;0.93;;
5237;SDS011;2639;49.700;7.962;2022-09-09T20:28:44;4.33;;;1.20;;
5237;SDS011;2639;49.700;7.962;2022-09-09T20:31:54;1.40;;;1.00;;
5237;SDS011;2639;49.700;7.962;2022-09-09T20:35:07;2.60;;;1.30;;
5237;SDS011;2639;49.700;7.962;2022-09-09T20:38:17;2.57;;;1.90;;
5237;SDS011;2639;49.700;7.962;2022-09-09T20:41:31;2.30;;;1.40;;
5237;SDS011;2639;49.700;7.962;2022-09-09T20:44:42;2.00;;;1.80;;
5237;SDS011;2639;49.700;7.962;2022-09-09T20:47:51;3.13;;;1.13;;
5237;SDS011;2639;49.700;7.962;2022-09-09T20:51:07;3.60;;;1.27;;
5237;SDS011;2639;49.700;7.962;2022-09-09T20:54:18;3.47;;;1.50;;
5237;SDS011;2639;49.700;7.962;2022-09-09T20:57:32;3.10;;;1.47;;
5237;SDS011;2639;49.700;7.962;2022-09-09T21:00:46;5.30;;;2.17;;
5237;SDS011;2639;49.700;7.962;2022-09-09T21:03:56;2.77;;;1.67;;
5237;SDS011;2639;49.700;7.962;2022-09-09T21:07:14;3.10;;;1.60;;
5237;SDS011;2639;49.700;7.962;2022-09-09T21:10:23;4.33;;;1.77;;
5237;SDS011;2639;49.700;7.962;2022-09-09T21:13:34;3.50;;;1.77;;
5237;SDS011;2639;49.700;7.962;2022-09-09T21:16:48;3.57;;;1.97;;
5237;SDS011;2639;49.700;7.962;2022-09-09T21:19:58;3.60;;;1.80;;
5237;SDS011;2639;49.700;7.962;2022-09-09T21:23:12;3.03;;;1.90;;
5237;SDS011;2639;49.700;7.962;2022-09-09T21:26:23;2.93;;;1.50;;
